Lima, Perú

4:14 PM PET en Octubre 20, 2014 (GMT -0500)
Jorge Chavez International | Change Station
CLOSE
Current Station
Aeropuerto
Location: Lima,
Altura: 43 ft
Estaciones meteorológicas cercanas

Alt 43 ft 12.01 °S, 77.12 °W | Updated 14 minutes ago

Scattered Clouds
Nubes dispersas
70 ° F
Sensación térmica 70 ° F
N
9
Viento Variable Viento desde Sur

Hoy
Alta -- | Baja -- ° F
--% Posibilidad de precipitaciones
Ayer
Alta -- | Baja -- ° F
Precip. -- pul
5:40 AM 6:05 PM
Creciente menguante, 9% visible
Presión 29.89 pul
Visibilidad 6.2 Millas
Nubes Baja 1200 ft
Nubes dispersas 17000 ft
Punto de rocío 59 ° F
Humedad 68%
Precipitaciones 0.00 pul
Espesor de la nieve No disponible.
UV 3 de una escala de 12
Polen No disponible.
Calidad del aire No disponible.
Flu Activity No disponible.
METAR SPIM 202100Z 18008KT 9999 FEW012 SCT170 21/15 Q1012 NOSIG RMK PP000

More Conditions Fewer Conditions

Presión 29.89 pul
Visibilidad 6.2 Millas
Nubes Baja 1200 ft
Nubes dispersas 17000 ft
Punto de rocío 59 ° F
Humedad 68%
Precipitaciones 0.00 pul
Espesor de la nieve No disponible.
UV 3 de una escala de 12
Polen No disponible.
Calidad del aire No disponible.
Flu Activity No disponible.
METAR SPIM 202100Z 18008KT 9999 FEW012 SCT170 21/15 Q1012 NOSIG RMK PP000

More Conditions Fewer Conditions

10-Day Weather Forecast

Almanac

Astronomía

Oct. 20, 2014 Salida Puesta
Hora real 5:40 AM PET 6:05 PM PET
Crepúsculo civil 5:19 AM PET 6:27 PM PET
Crepúsculo náutico 4:54 AM PET 6:52 PM PET
Crepúsculo astronómico 4:28 AM PET 7:17 PM PET
Luna 3:22 AM PET 3:40 PM PET
Horas de luz 13h 08m
Horas de luz
12h 24m
Tomorrow will be 0m 40s longer.
Creciente menguante, 9% of the Moon is Illuminated
Hoy
Creciente menguante
Oct 23
Nueva
Oct 30
Cuarto creciente
Nov 6
Luna llena
Nov 14
Cuarto menguante

Extremos de hoy

Máximos del país Bajas del país

Community

WunderPhotos

Upload Photos

1,763,510 ¡fotos cargadas!

WunderBlogs® & News

By Dr. Jeff Masters
Director of Meteorology, Weather Underground
By Kari Strenfel
Meteorologist, Weather Underground
By Christopher C. Burt
Weather Historian, Weather Underground
October 20, 2014
October 20, 2014
October 20, 2014

Nearby

Calidad del aire

Not available.

Grosos de nieve

Not available.

Actividad de terremotos

Ciudad Distance Mag. Tiempo y dato
No hay informes recientes de la actividad sísmica.
Magnitud mínima muestra es 2,5.

Temperaturas de aguas costeras

Lugar Temperatura
Sin partes meteorológicos de las estaciones

Estaciones meteorológicas cercanas